createdAt,value
2022-11-21T04:09:18.488Z,98.83
2022-11-21T04:11:46.979Z,97.70
2022-11-21T04:14:15.216Z,92.97
2022-11-21T04:16:43.632Z,99.30
2022-11-21T04:19:11.907Z,103.73
2022-11-21T04:21:43.145Z,95.93
2022-11-21T04:24:11.649Z,99.60
2022-11-21T04:26:41.251Z,93.70
2022-11-21T04:29:09.610Z,99.87
2022-11-21T04:31:39.199Z,99.47
2022-11-21T04:34:07.914Z,98.10
2022-11-21T04:36:36.588Z,94.70
2022-11-21T04:39:05.097Z,101.53
2022-11-21T04:41:33.350Z,99.43
2022-11-21T04:44:03.075Z,92.60
2022-11-21T04:46:31.404Z,96.67
2022-11-21T04:48:59.722Z,94.10
2022-11-21T04:51:27.998Z,100.67
2022-11-21T04:53:56.218Z,102.07
2022-11-21T04:56:24.514Z,109.70
2022-11-21T04:58:53.551Z,113.60
2022-11-21T05:01:23.365Z,97.97
2022-11-21T05:03:53.411Z,101.93
2022-11-21T05:06:21.775Z,95.60
2022-11-21T05:08:52.881Z,89.97
2022-11-21T05:11:40.043Z,93.30
2022-11-21T05:14:09.383Z,103.30
2022-11-21T05:16:38.972Z,101.47
2022-11-21T05:19:07.731Z,99.93
2022-11-21T05:21:36.433Z,102.20
2022-11-21T05:24:04.776Z,100.80
2022-11-21T05:26:33.121Z,102.53
2022-11-21T05:29:01.701Z,102.50
2022-11-21T05:31:30.095Z,96.93
2022-11-21T05:33:59.927Z,105.30
2022-11-21T05:36:28.332Z,106.20
2022-11-21T05:38:56.736Z,104.53
2022-11-21T05:41:26.476Z,109.33
2022-11-21T05:43:54.123Z,105.40
2022-11-21T05:46:26.486Z,113.87
2022-11-21T05:48:56.147Z,102.83
2022-11-21T05:51:25.942Z,105.27
2022-11-21T05:53:55.387Z,101.53
2022-11-21T05:56:23.703Z,109.47
2022-11-21T05:58:51.994Z,109.60
2022-11-21T06:01:40.978Z,99.07
2022-11-21T06:04:09.115Z,101.97
2022-11-21T06:06:39.156Z,113.57
2022-11-21T06:09:10.089Z,100.40
2022-11-21T06:11:38.498Z,107.57
2022-11-21T06:14:06.979Z,99.03
2022-11-21T06:16:35.284Z,109.20
2022-11-21T06:19:03.605Z,110.53
2022-11-21T06:21:34.297Z,101.10
2022-11-21T06:24:08.007Z,118.67
2022-11-21T06:26:36.419Z,114.50
2022-11-21T06:29:05.083Z,117.60
2022-11-21T06:31:33.512Z,113.00
2022-11-21T06:34:03.612Z,114.20
2022-11-21T06:36:31.952Z,110.43
2022-11-21T06:39:00.229Z,112.07
2022-11-21T06:41:31.083Z,118.90
2022-11-21T06:44:00.982Z,109.27
2022-11-21T06:46:29.487Z,118.47
2022-11-21T06:48:57.845Z,108.37
2022-11-21T06:51:27.114Z,105.57
2022-11-21T06:54:01.179Z,102.53
2022-11-21T06:56:32.621Z,108.87
2022-11-21T06:59:02.990Z,97.67
2022-11-21T07:01:37.659Z,112.03
2022-11-21T07:04:08.741Z,114.33
2022-11-21T07:06:40.252Z,110.90
2022-11-21T07:09:32.172Z,113.47
2022-11-21T07:12:21.186Z,110.27
2022-11-21T07:14:48.645Z,112.90
2022-11-21T07:17:16.980Z,122.40
2022-11-21T07:19:50.307Z,125.73
2022-11-21T07:22:24.408Z,105.30
2022-11-21T07:24:52.825Z,116.43
2022-11-21T07:27:24.733Z,107.37
2022-11-21T07:29:55.170Z,110.87
2022-11-21T07:32:23.494Z,116.23
2022-11-21T07:34:51.761Z,108.27
2022-11-21T07:37:20.051Z,105.10
2022-11-21T07:39:54.313Z,102.33
2022-11-21T07:42:24.099Z,92.67
2022-11-21T07:44:55.240Z,104.93
2022-11-21T07:47:26.149Z,102.90
2022-11-21T07:49:54.584Z,107.70
2022-11-21T07:52:22.981Z,99.07
2022-11-21T07:54:52.475Z,93.87
2022-11-21T07:57:20.953Z,100.63
2022-11-21T07:59:51.853Z,104.67
2022-11-21T08:02:22.542Z,92.13
2022-11-21T08:04:53.127Z,96.77
2022-11-21T08:07:25.227Z,107.03
2022-11-21T08:09:53.744Z,100.73
2022-11-21T08:12:24.824Z,95.60
2022-11-21T08:14:56.516Z,103.90
2022-11-21T08:17:26.671Z,100.03
2022-11-21T08:19:54.977Z,103.90
2022-11-21T08:22:23.224Z,101.17
2022-11-21T08:24:54.029Z,99.23
2022-11-21T08:27:22.632Z,103.27
2022-11-21T08:29:52.498Z,92.83
2022-11-21T08:32:22.346Z,97.77
2022-11-21T08:34:50.586Z,98.77
2022-11-21T08:37:21.173Z,94.17
2022-11-21T08:39:51.277Z,95.20
2022-11-21T08:42:19.720Z,95.03
2022-11-21T08:44:51.299Z,91.87
2022-11-21T08:47:34.261Z,84.00
2022-11-21T08:50:08.791Z,80.23
2022-11-21T08:52:39.651Z,86.43
2022-11-21T08:55:11.533Z,82.77
2022-11-21T08:57:45.463Z,78.80
2022-11-21T09:00:14.937Z,84.13
2022-11-21T09:03:21.819Z,82.60
2022-11-21T09:05:52.362Z,73.73
2022-11-21T09:08:22.629Z,78.33
2022-11-21T09:10:57.386Z,68.97
2022-11-21T09:13:36.056Z,76.43
2022-11-21T09:16:24.835Z,76.20
2022-11-21T09:18:57.718Z,75.23
2022-11-21T09:21:26.253Z,69.30
2022-11-21T09:23:54.606Z,65.70
2022-11-21T09:26:22.975Z,71.80
2022-11-21T09:28:53.638Z,73.37
2022-11-21T09:31:23.242Z,71.03
2022-11-21T09:33:55.092Z,64.57
2022-11-21T09:36:27.453Z,58.63
2022-11-21T09:39:01.084Z,63.00
2022-11-21T09:41:52.921Z,63.60
2022-11-21T09:44:54.660Z,63.83
2022-11-21T09:47:28.367Z,54.67
2022-11-21T09:50:02.071Z,51.03
2022-11-21T09:52:40.899Z,61.27
2022-11-21T09:55:33.972Z,59.10
2022-11-21T09:58:08.019Z,52.40
2022-11-21T10:00:36.732Z,49.87
2022-11-21T10:03:05.297Z,54.77
2022-11-21T10:05:50.125Z,54.83
2022-11-21T10:08:30.832Z,51.33
2022-11-21T10:11:18.112Z,51.43
2022-11-21T10:14:04.235Z,53.23
2022-11-21T10:16:42.326Z,53.87
2022-11-21T10:19:42.267Z,58.73
2022-11-21T10:22:36.834Z,54.90
2022-11-21T10:25:27.291Z,54.17
2022-11-21T10:28:00.928Z,48.70
2022-11-21T10:30:30.034Z,50.53
2022-11-21T10:33:05.946Z,51.07
2022-11-21T10:35:40.933Z,48.07
2022-11-21T10:38:23.412Z,47.10
2022-11-21T10:41:09.523Z,51.07
2022-11-21T10:44:02.063Z,45.20
2022-11-21T10:46:30.180Z,47.53
2022-11-21T10:49:01.210Z,47.17
2022-11-21T10:51:43.574Z,48.00
2022-11-21T10:54:31.304Z,45.57
2022-11-21T10:57:07.928Z,45.93
2022-11-21T10:59:36.084Z,39.07
2022-11-21T11:02:23.506Z,45.27
2022-11-21T11:05:21.557Z,43.47
2022-11-21T11:08:02.369Z,45.63
2022-11-21T11:10:30.967Z,46.10
2022-11-21T11:13:44.663Z,47.63
2022-11-21T11:16:08.524Z,44.80
2022-11-21T11:18:41.055Z,50.23
2022-11-21T11:21:18.893Z,44.40
2022-11-21T11:23:48.148Z,47.10
2022-11-21T11:26:25.463Z,47.93
2022-11-21T11:29:05.745Z,46.10
2022-11-21T11:31:42.562Z,53.27
2022-11-21T11:34:15.134Z,45.60
2022-11-21T11:36:54.886Z,48.97
2022-11-21T11:39:36.265Z,55.97
2022-11-21T11:42:51.359Z,48.77
2022-11-21T11:45:53.626Z,46.93
2022-11-21T11:48:21.846Z,44.80
2022-11-21T11:50:52.581Z,49.77
2022-11-21T11:53:22.617Z,45.37
2022-11-21T11:55:54.580Z,47.73
2022-11-21T11:58:27.955Z,43.60
2022-11-21T12:01:03.819Z,45.47
2022-11-21T12:03:41.070Z,53.07
2022-11-21T12:06:15.943Z,45.90
2022-11-21T12:08:53.062Z,54.30
2022-11-21T12:11:52.657Z,49.60
2022-11-21T12:14:51.158Z,48.77
2022-11-21T12:17:25.344Z,52.03
2022-11-21T12:19:55.429Z,51.27
2022-11-21T12:22:23.909Z,49.10
2022-11-21T12:24:52.006Z,47.40
2022-11-21T12:27:29.736Z,53.00
2022-11-21T12:30:16.079Z,52.70
2022-11-21T12:32:57.214Z,51.77
2022-11-21T12:35:47.928Z,50.97
2022-11-21T12:38:26.928Z,52.40
2022-11-21T12:41:32.248Z,48.37
2022-11-21T12:44:11.616Z,49.30
2022-11-21T12:46:49.012Z,47.73
2022-11-21T12:49:49.076Z,50.30
2022-11-21T12:52:42.484Z,52.43
2022-11-21T12:55:25.436Z,49.33
2022-11-21T12:58:18.245Z,51.17
2022-11-21T13:01:21.440Z,50.93
2022-11-21T13:03:59.104Z,48.83
2022-11-21T13:06:30.785Z,49.03
2022-11-21T13:09:02.515Z,52.87
2022-11-21T13:12:02.229Z,56.13
2022-11-21T13:14:42.362Z,50.47
2022-11-21T13:17:24.265Z,50.13
2022-11-21T13:19:58.804Z,53.03
2022-11-21T13:22:51.156Z,51.93
2022-11-21T13:25:47.671Z,54.97
2022-11-21T13:28:37.708Z,49.40
2022-11-21T13:31:28.930Z,54.73
2022-11-21T13:33:57.413Z,53.00
2022-11-21T13:36:40.318Z,49.57
2022-11-21T13:39:38.141Z,55.27
2022-11-21T13:42:34.276Z,53.63
2022-11-21T13:45:39.898Z,52.70
2022-11-21T13:48:39.163Z,53.47
2022-11-21T13:51:36.119Z,52.13
2022-11-21T13:54:43.882Z,51.03
2022-11-21T13:57:32.025Z,58.40
2022-11-21T14:00:42.980Z,49.47
2022-11-21T14:03:34.745Z,55.73
2022-11-21T14:06:32.757Z,54.43
2022-11-21T14:09:25.764Z,56.20
2022-11-21T14:12:02.188Z,58.27
2022-11-21T14:14:37.102Z,59.00
2022-11-21T14:17:19.699Z,59.53
2022-11-21T14:19:49.548Z,65.50
2022-11-21T14:22:31.919Z,59.97
2022-11-21T14:25:07.487Z,64.03
2022-11-21T14:27:45.144Z,67.13
2022-11-21T14:30:29.575Z,71.80
2022-11-21T14:32:58.254Z,67.27
2022-11-21T14:35:26.505Z,70.07
2022-11-21T14:37:56.022Z,70.77
2022-11-21T14:40:25.928Z,65.43
2022-11-21T14:42:55.682Z,69.77
2022-11-21T14:45:27.437Z,63.97
2022-11-21T14:47:59.200Z,66.50
2022-11-21T14:50:29.453Z,66.30
2022-11-21T14:53:00.513Z,75.40
2022-11-21T14:55:32.161Z,73.73
2022-11-21T14:58:09.467Z,72.03
2022-11-21T15:03:28.299Z,73.90
2022-11-21T15:06:05.748Z,77.00
2022-11-21T15:11:29.857Z,74.93
2022-11-21T15:14:15.560Z,76.43
2022-11-21T15:16:45.081Z,69.50
2022-11-21T15:19:13.267Z,70.33
2022-11-21T15:21:46.486Z,78.17
2022-11-21T15:24:20.324Z,123.93
2022-11-21T15:26:48.437Z,83.80
2022-11-21T15:29:22.429Z,78.17
2022-11-21T15:32:14.049Z,72.53
2022-11-21T15:34:44.735Z,74.70
2022-11-21T15:37:16.575Z,76.47
2022-11-21T15:39:46.236Z,78.07
2022-11-21T15:42:38.966Z,97.87
2022-11-21T15:45:25.990Z,78.57
2022-11-21T15:47:55.622Z,77.40
2022-11-21T15:50:25.331Z,72.30
2022-11-21T15:52:54.726Z,73.37
2022-11-21T15:55:26.043Z,73.47
2022-11-21T15:57:54.299Z,66.40
2022-11-21T16:00:23.996Z,67.47
2022-11-21T16:02:52.111Z,80.43
2022-11-21T16:05:20.369Z,74.93
2022-11-21T16:07:48.886Z,73.03
2022-11-21T16:10:24.290Z,66.47
2022-11-21T16:12:56.240Z,67.07
2022-11-21T16:15:26.142Z,64.03
2022-11-21T16:17:54.301Z,69.00
2022-11-21T16:20:23.125Z,73.23
2022-11-21T16:22:51.240Z,77.50
2022-11-21T16:25:19.581Z,79.60
2022-11-21T16:27:49.679Z,72.17
2022-11-21T16:30:17.981Z,68.30
2022-11-21T16:32:47.559Z,68.20
2022-11-21T16:35:15.922Z,75.03
2022-11-21T16:37:44.523Z,73.37
2022-11-21T16:40:13.437Z,76.93
2022-11-21T16:42:41.876Z,70.53
2022-11-21T16:45:11.523Z,71.17
2022-11-21T16:47:42.017Z,75.90
2022-11-21T16:50:15.579Z,76.43
2022-11-21T16:52:43.923Z,74.30
2022-11-21T16:55:14.147Z,82.20
2022-11-21T16:57:43.303Z,78.60
2022-11-21T17:00:13.052Z,73.07
2022-11-21T17:02:41.219Z,75.20
2022-11-21T17:05:09.890Z,66.00
2022-11-21T17:07:39.475Z,68.33
2022-11-21T17:10:08.536Z,84.70
2022-11-21T17:12:38.969Z,76.87
2022-11-21T17:15:09.242Z,73.53
2022-11-21T17:17:37.479Z,78.40
2022-11-21T17:20:06.319Z,83.50
2022-11-21T17:22:34.973Z,73.30
2022-11-21T17:25:04.601Z,70.07
2022-11-21T17:27:32.942Z,77.73
2022-11-21T17:30:01.076Z,65.33
2022-11-21T17:32:29.278Z,69.97
2022-11-21T17:34:57.500Z,70.63
2022-11-21T17:37:26.274Z,69.87
2022-11-21T17:39:54.569Z,75.23
2022-11-21T17:42:26.872Z,83.27
2022-11-21T17:44:55.115Z,79.87
2022-11-21T17:47:23.289Z,73.07
2022-11-21T17:49:51.497Z,71.73
2022-11-21T17:52:19.785Z,75.53
2022-11-21T17:54:48.966Z,73.33
2022-11-21T17:57:18.561Z,75.60
2022-11-21T17:59:48.631Z,65.83
2022-11-21T18:02:22.464Z,77.47
2022-11-21T18:04:53.516Z,74.97
2022-11-21T18:07:22.037Z,75.10
2022-11-21T18:09:50.205Z,75.17
2022-11-21T18:12:18.649Z,70.93
2022-11-21T18:14:48.255Z,117.43
2022-11-21T18:17:18.713Z,82.70
2022-11-21T18:19:47.057Z,76.10
2022-11-21T18:22:15.265Z,82.60
2022-11-21T18:24:43.357Z,83.20
2022-11-21T18:27:11.681Z,81.93
2022-11-21T18:29:41.124Z,72.83
2022-11-21T18:32:10.758Z,74.67
2022-11-21T18:34:39.036Z,72.47
2022-11-21T18:37:07.316Z,75.33
2022-11-21T18:39:35.540Z,70.00
2022-11-21T18:42:03.813Z,75.37
2022-11-21T18:44:31.950Z,73.07
2022-11-21T18:47:00.257Z,66.20
2022-11-21T18:49:30.023Z,73.53
2022-11-21T18:51:58.343Z,68.53
2022-11-21T18:54:26.530Z,70.80
2022-11-21T18:56:55.127Z,72.90
2022-11-21T18:59:23.478Z,68.80
2022-11-21T19:01:51.842Z,71.37
2022-11-21T19:04:20.045Z,72.23
2022-11-21T19:06:49.803Z,73.07
2022-11-21T19:09:18.054Z,72.87
2022-11-21T19:11:46.208Z,65.87
2022-11-21T19:14:14.650Z,71.00
2022-11-21T19:16:42.939Z,73.67
2022-11-21T19:19:33.680Z,75.00
2022-11-21T19:22:01.825Z,67.40
2022-11-21T19:24:30.182Z,66.63
2022-11-21T19:26:58.584Z,77.23
2022-11-21T19:29:27.128Z,71.53
2022-11-21T19:31:55.905Z,78.43
2022-11-21T19:34:24.268Z,81.17
2022-11-21T19:36:53.160Z,78.17
2022-11-21T19:39:22.881Z,75.93
2022-11-21T19:41:51.174Z,73.47
2022-11-21T19:44:19.312Z,70.53
2022-11-21T19:46:48.128Z,75.13
2022-11-21T19:49:19.338Z,79.43
2022-11-21T19:51:47.755Z,79.97
2022-11-21T19:54:17.041Z,76.43
2022-11-21T19:56:46.589Z,76.60
2022-11-21T19:59:15.535Z,82.60
2022-11-21T20:01:48.168Z,73.43
2022-11-21T20:04:19.400Z,76.27
2022-11-21T20:06:47.871Z,75.10
2022-11-21T20:09:17.792Z,79.37
2022-11-21T20:11:49.781Z,80.00
2022-11-21T20:14:22.324Z,77.53
2022-11-21T20:16:52.948Z,82.07
2022-11-21T20:19:24.019Z,81.27
2022-11-21T20:21:52.967Z,75.33
2022-11-21T20:24:21.212Z,82.10
2022-11-21T20:26:51.024Z,82.30
2022-11-21T20:29:19.394Z,75.57
2022-11-21T20:31:48.494Z,84.80
2022-11-21T20:34:17.226Z,74.50
2022-11-21T20:36:46.902Z,78.47
2022-11-21T20:39:16.691Z,86.53
2022-11-21T20:41:45.806Z,84.17
2022-11-21T20:47:05.658Z,82.03
2022-11-21T20:49:35.049Z,79.13
2022-11-21T20:54:51.441Z,86.50
2022-11-21T20:57:19.527Z,93.63
2022-11-21T20:59:49.060Z,93.53
2022-11-21T21:02:19.008Z,97.18
2022-11-21T21:04:47.257Z,89.70
2022-11-21T21:07:15.463Z,88.93
2022-11-21T21:09:43.674Z,92.90
2022-11-21T21:12:11.879Z,87.27
2022-11-21T21:14:40.060Z,85.87
2022-11-21T21:17:09.590Z,102.90
2022-11-21T21:19:37.758Z,93.87
2022-11-21T21:22:06.068Z,90.40
2022-11-21T21:24:34.226Z,92.63
2022-11-21T21:27:02.409Z,86.90
2022-11-21T21:29:31.183Z,86.63
2022-11-21T21:31:59.605Z,91.80
2022-11-21T21:34:29.659Z,90.07
2022-11-21T21:36:58.659Z,88.00
2022-11-21T21:39:27.332Z,81.20
2022-11-21T21:41:56.021Z,86.07
2022-11-21T21:44:29.896Z,94.53
2022-11-21T21:47:01.366Z,86.03
2022-11-21T21:49:31.084Z,93.90
2022-11-21T21:51:59.356Z,93.63
2022-11-21T21:54:27.941Z,85.23
2022-11-21T21:56:56.167Z,86.80
2022-11-21T21:59:25.663Z,84.80
2022-11-21T22:01:53.940Z,85.90
2022-11-21T22:04:24.339Z,88.30
2022-11-21T22:06:54.120Z,88.87
2022-11-21T22:09:23.047Z,80.07
2022-11-21T22:11:51.204Z,92.30
2022-11-21T22:14:19.490Z,88.63
2022-11-21T22:16:47.789Z,83.70
2022-11-21T22:19:16.624Z,85.13
2022-11-21T22:21:44.837Z,92.67
2022-11-21T22:24:31.545Z,85.20
2022-11-21T22:26:59.768Z,88.77
2022-11-21T22:29:28.288Z,90.20
2022-11-21T22:31:56.540Z,90.87
2022-11-21T22:34:24.895Z,81.23
2022-11-21T22:36:52.984Z,92.73
2022-11-21T22:39:22.518Z,85.13
2022-11-21T22:41:50.707Z,87.03
2022-11-21T22:44:19.256Z,91.00
2022-11-21T22:46:47.407Z,83.57
2022-11-21T22:49:15.629Z,85.40
2022-11-21T22:51:45.373Z,90.07
2022-11-21T22:54:13.929Z,82.80
2022-11-21T22:56:43.386Z,81.63
2022-11-21T22:59:13.999Z,88.43
2022-11-21T23:01:42.334Z,81.53
